Time;durP1;ratioP1;P1;durP2;ratioP2;P2;SDS_P1;SDS_P2;PMS_P1;PMS_P2;Temp;Humidity;BMP_temperature;BMP_pressure;BME280_temperature;BME280_humidity;BME280_pressure;Samples;Min_cycle;Max_cycle;Signal;HPM_P1;HPM_P2
2023/04/25 00:02:08;;;;;;;7.43;2.73;;;7.50;99.90;;;;;;5049938;28;20234;-79
2023/04/25 00:04:37;;;;;;;9.33;3.07;;;7.50;99.90;;;;;;5052672;28;20193;-81
2023/04/25 00:07:05;;;;;;;11.07;3.20;;;7.50;99.90;;;;;;5037130;28;20207;-80
2023/04/25 00:09:32;;;;;;;10.67;2.90;;;7.50;99.90;;;;;;5032325;28;20248;-76
2023/04/25 00:12:01;;;;;;;15.17;3.13;;;7.50;99.90;;;;;;5033098;28;20572;-77
2023/04/25 00:14:30;;;;;;;17.33;3.63;;;7.50;99.90;;;;;;5032097;28;20309;-78
2023/04/25 00:16:57;;;;;;;9.97;3.10;;;7.50;99.90;;;;;;5032532;28;20187;-79
2023/04/25 00:19:24;;;;;;;11.30;2.47;;;7.50;99.90;;;;;;5032350;28;20194;-75
2023/04/25 00:21:51;;;;;;;12.83;3.07;;;7.50;99.90;;;;;;5032370;28;20286;-78
2023/04/25 00:24:18;;;;;;;5.80;2.50;;;7.40;99.90;;;;;;5032369;28;20209;-78
2023/04/25 00:26:45;;;;;;;13.33;3.67;;;7.40;99.90;;;;;;5032641;28;20281;-79
2023/04/25 00:29:12;;;;;;;10.93;2.80;;;7.40;99.90;;;;;;5031783;28;20982;-78
2023/04/25 00:31:40;;;;;;;9.13;3.23;;;7.40;99.90;;;;;;5032763;28;20224;-80
2023/04/25 00:34:08;;;;;;;12.00;2.03;;;7.30;99.90;;;;;;5032232;28;20659;-78
2023/04/25 00:36:34;;;;;;;7.67;2.27;;;7.30;99.90;;;;;;5031739;28;20214;-77
2023/04/25 00:39:02;;;;;;;7.20;2.03;;;7.30;99.90;;;;;;5032391;28;20241;-77
2023/04/25 00:41:30;;;;;;;13.93;2.70;;;7.30;99.90;;;;;;5032506;28;20583;-80
2023/04/25 00:43:57;;;;;;;8.30;2.03;;;7.30;99.90;;;;;;5030987;28;20250;-76
2023/04/25 00:46:24;;;;;;;7.03;2.37;;;7.30;99.90;;;;;;5032109;28;20237;-77
2023/04/25 00:48:52;;;;;;;10.43;2.20;;;7.30;99.90;;;;;;5032220;28;20199;-78
2023/04/25 00:51:21;;;;;;;12.63;2.70;;;7.20;99.90;;;;;;5031876;28;20205;-77
2023/04/25 00:53:49;;;;;;;8.90;2.60;;;7.20;99.90;;;;;;5032136;28;20719;-79
2023/04/25 00:56:17;;;;;;;13.93;2.57;;;7.20;99.90;;;;;;5031938;28;20257;-80
2023/04/25 00:58:44;;;;;;;10.80;2.63;;;7.20;99.90;;;;;;5031874;28;20518;-76
2023/04/25 01:01:12;;;;;;;10.13;2.47;;;7.30;99.90;;;;;;5042540;28;20241;-75
2023/04/25 01:03:41;;;;;;;13.23;3.37;;;7.30;99.90;;;;;;5051996;28;20269;-78
2023/04/25 01:06:10;;;;;;;14.70;3.80;;;7.30;99.90;;;;;;5038165;28;20214;-76
2023/04/25 01:08:39;;;;;;;11.83;3.00;;;7.30;99.90;;;;;;5032286;28;20202;-75
2023/04/25 01:11:06;;;;;;;7.27;2.30;;;7.30;99.90;;;;;;5030937;28;20213;-76
2023/04/25 01:13:34;;;;;;;10.40;3.00;;;7.20;99.90;;;;;;5037372;28;20310;-77
2023/04/25 01:16:02;;;;;;;7.47;2.87;;;7.20;99.90;;;;;;5032403;28;20300;-78
2023/04/25 01:18:29;;;;;;;10.97;2.30;;;7.10;99.90;;;;;;5036363;28;20201;-78
2023/04/25 01:20:56;;;;;;;9.50;2.47;;;7.10;99.90;;;;;;5051649;28;20619;-77
2023/04/25 01:23:24;;;;;;;11.97;2.43;;;7.10;99.90;;;;;;5051502;28;20201;-77
2023/04/25 01:25:52;;;;;;;11.90;2.73;;;7.10;99.90;;;;;;5031063;28;20212;-77
2023/04/25 01:28:19;;;;;;;6.80;2.47;;;7.10;99.90;;;;;;5031772;28;20226;-77
2023/04/25 01:30:47;;;;;;;10.10;2.90;;;7.10;99.90;;;;;;5031856;28;20203;-78
2023/04/25 01:33:16;;;;;;;10.87;2.67;;;7.10;99.90;;;;;;5031204;28;20191;-80
2023/04/25 01:35:43;;;;;;;7.83;2.70;;;7.00;99.90;;;;;;5052344;28;20245;-81
2023/04/25 01:38:10;;;;;;;11.27;2.40;;;7.00;99.90;;;;;;5052109;28;20202;-81
2023/04/25 01:40:40;;;;;;;10.13;2.90;;;7.00;99.90;;;;;;5051403;28;20652;-81
2023/04/25 01:43:10;;;;;;;7.50;2.53;;;7.00;99.90;;;;;;5047424;28;20637;-80
2023/04/25 01:45:39;;;;;;;10.97;2.87;;;7.00;99.90;;;;;;5032519;28;20199;-81
2023/04/25 01:48:06;;;;;;;13.93;3.37;;;7.00;99.90;;;;;;5031641;28;20490;-78
2023/04/25 01:50:33;;;;;;;11.47;2.87;;;7.10;99.90;;;;;;5032517;28;20643;-81
2023/04/25 01:53:01;;;;;;;11.67;2.70;;;7.10;99.90;;;;;;5032117;28;20197;-81
2023/04/25 01:55:28;;;;;;;16.57;2.87;;;7.10;99.90;;;;;;5035066;28;20222;-81
2023/04/25 01:57:56;;;;;;;11.67;2.87;;;7.20;99.90;;;;;;5035597;28;20226;-81
2023/04/25 02:00:24;;;;;;;8.57;2.80;;;7.30;99.90;;;;;;5035080;28;20205;-81
2023/04/25 02:02:53;;;;;;;11.43;3.53;;;7.30;99.90;;;;;;5034925;28;20607;-77
2023/04/25 02:05:20;;;;;;;8.37;2.03;;;7.30;99.90;;;;;;5034820;28;20615;-77
2023/04/25 02:07:48;;;;;;;11.40;2.10;;;7.10;99.90;;;;;;5034331;28;20291;-76
2023/04/25 02:10:14;;;;;;;7.47;2.07;;;6.90;99.90;;;;;;5034745;28;20195;-78
2023/04/25 02:12:41;;;;;;;4.07;1.60;;;6.90;99.90;;;;;;5052940;28;20210;-76
2023/04/25 02:15:10;;;;;;;3.97;1.40;;;6.80;99.90;;;;;;5053945;28;20218;-81
2023/04/25 02:17:39;;;;;;;5.37;2.23;;;6.70;99.90;;;;;;5054926;28;20284;-80
2023/04/25 02:20:07;;;;;;;3.10;1.37;;;6.70;99.90;;;;;;5050560;28;20284;-80
2023/04/25 02:22:35;;;;;;;9.07;2.27;;;6.60;99.90;;;;;;5035014;28;20290;-81
2023/04/25 02:25:02;;;;;;;4.37;1.37;;;6.70;99.90;;;;;;5035073;28;20876;-81
2023/04/25 02:27:29;;;;;;;5.67;1.90;;;6.70;99.90;;;;;;5035069;28;20199;-81
2023/04/25 02:29:56;;;;;;;4.00;1.67;;;6.70;99.90;;;;;;5034671;28;20798;-81
2023/04/25 02:32:24;;;;;;;8.50;2.00;;;6.70;99.90;;;;;;5035184;28;20277;-82
2023/04/25 02:34:51;;;;;;;4.97;1.77;;;6.70;99.90;;;;;;5035139;28;20205;-80
2023/04/25 02:37:17;;;;;;;6.80;1.50;;;6.70;99.90;;;;;;5035306;28;20257;-82
2023/04/25 02:39:44;;;;;;;5.53;1.90;;;6.70;99.90;;;;;;5034921;28;20322;-81
2023/04/25 02:42:11;;;;;;;8.00;2.00;;;6.70;99.90;;;;;;5034287;28;20206;-79
2023/04/25 02:44:38;;;;;;;8.23;2.17;;;6.80;99.90;;;;;;5034717;28;20201;-81
2023/04/25 02:47:05;;;;;;;6.67;1.77;;;6.80;99.90;;;;;;5034983;28;20297;-77
2023/04/25 02:49:33;;;;;;;7.30;1.97;;;6.80;99.90;;;;;;5034488;28;20268;-82
2023/04/25 02:52:00;;;;;;;10.67;2.53;;;6.90;99.90;;;;;;5034830;28;20486;-81
2023/04/25 02:54:27;;;;;;;6.97;1.97;;;6.80;99.90;;;;;;5034641;28;20199;-81
2023/04/25 02:56:54;;;;;;;10.43;1.90;;;6.80;99.90;;;;;;5034393;28;20397;-81
2023/04/25 02:59:21;;;;;;;7.63;2.03;;;6.80;99.90;;;;;;5034372;28;20218;-80
2023/04/25 03:01:48;;;;;;;8.30;2.20;;;6.80;99.90;;;;;;5034085;28;20286;-79
2023/04/25 03:04:15;;;;;;;7.13;2.03;;;6.80;99.90;;;;;;5034004;28;20199;-80
2023/04/25 03:06:43;;;;;;;12.87;2.43;;;6.80;99.90;;;;;;5033958;28;20510;-80
2023/04/25 03:09:10;;;;;;;9.60;2.30;;;6.80;99.90;;;;;;5034001;28;20629;-81
2023/04/25 03:11:39;;;;;;;8.97;2.03;;;6.70;99.90;;;;;;5054236;28;20296;-82
2023/04/25 03:14:06;;;;;;;5.23;1.63;;;6.70;99.90;;;;;;5044271;28;20230;-81
2023/04/25 03:16:33;;;;;;;6.73;1.70;;;6.70;99.90;;;;;;5034592;28;20288;-81
2023/04/25 03:19:00;;;;;;;12.07;2.00;;;6.60;99.90;;;;;;5047638;28;20214;-82
2023/04/25 03:21:27;;;;;;;10.60;2.33;;;6.50;99.90;;;;;;5054138;28;20624;-80
2023/04/25 03:23:55;;;;;;;9.53;2.33;;;6.50;99.90;;;;;;5054610;28;20206;-81
2023/04/25 03:26:22;;;;;;;5.60;2.10;;;6.60;99.90;;;;;;5046054;28;20516;-82
2023/04/25 03:28:49;;;;;;;7.47;1.97;;;6.50;99.90;;;;;;5034897;28;20757;-79
2023/04/25 03:31:16;;;;;;;3.60;1.57;;;6.50;99.90;;;;;;5035100;28;20203;-80
2023/04/25 03:33:43;;;;;;;7.77;1.93;;;6.40;99.90;;;;;;5034116;28;20202;-82
2023/04/25 03:36:10;;;;;;;11.20;2.53;;;6.40;99.90;;;;;;5034031;28;20225;-81
2023/04/25 03:38:37;;;;;;;4.33;1.87;;;6.30;99.90;;;;;;5033815;28;20624;-81
2023/04/25 03:41:05;;;;;;;7.53;1.87;;;6.30;99.90;;;;;;5034041;28;20213;-81
2023/04/25 03:43:32;;;;;;;8.60;1.80;;;6.20;99.90;;;;;;5034190;28;20209;-81
2023/04/25 03:45:59;;;;;;;3.53;1.47;;;6.10;99.90;;;;;;5032911;28;20191;-75
2023/04/25 03:48:27;;;;;;;7.33;1.90;;;6.10;99.90;;;;;;5032733;28;20526;-76
2023/04/25 03:50:54;;;;;;;8.50;1.50;;;6.20;99.90;;;;;;5033069;28;20203;-77
2023/04/25 03:53:21;;;;;;;5.07;1.60;;;6.10;99.90;;;;;;5032320;28;20199;-76
2023/04/25 03:55:49;;;;;;;7.23;1.70;;;6.20;99.90;;;;;;5032565;28;20566;-76
2023/04/25 03:58:17;;;;;;;10.10;2.03;;;6.10;99.90;;;;;;5032685;28;20721;-77
2023/04/25 04:00:44;;;;;;;6.30;1.50;;;6.20;99.90;;;;;;5032103;28;20382;-76
2023/04/25 04:03:10;;;;;;;5.17;1.47;;;6.20;99.90;;;;;;5032674;28;20292;-75
2023/04/25 04:05:40;;;;;;;5.43;1.97;;;6.20;99.90;;;;;;5032630;28;20506;-77
2023/04/25 04:08:07;;;;;;;6.23;2.10;;;6.20;99.90;;;;;;5031671;28;20211;-76
2023/04/25 04:10:34;;;;;;;4.63;1.87;;;6.20;99.90;;;;;;5032311;28;20280;-76
2023/04/25 04:13:01;;;;;;;10.37;2.57;;;6.20;99.90;;;;;;5032300;28;20207;-76
2023/04/25 04:15:32;;;;;;;8.03;2.10;;;6.20;99.90;;;;;;5031844;28;20317;-78
2023/04/25 04:18:02;;;;;;;14.97;3.17;;;6.20;99.90;;;;;;5040986;28;20657;-75
2023/04/25 04:20:29;;;;;;;12.00;2.67;;;6.30;99.90;;;;;;5052756;28;20198;-80
2023/04/25 04:22:56;;;;;;;6.03;1.80;;;6.30;99.90;;;;;;5052355;28;20206;-82
2023/04/25 04:25:24;;;;;;;10.33;2.10;;;6.30;99.90;;;;;;5035724;28;20290;-77
2023/04/25 04:27:54;;;;;;;9.23;2.80;;;6.30;99.90;;;;;;5031570;28;20214;-78
2023/04/25 04:30:23;;;;;;;9.13;2.53;;;6.40;99.90;;;;;;5032414;28;20329;-77
2023/04/25 04:32:52;;;;;;;12.27;2.80;;;6.40;99.90;;;;;;5032072;28;20221;-76
2023/04/25 04:35:19;;;;;;;11.17;3.67;;;6.40;99.90;;;;;;5031437;28;20501;-76
2023/04/25 04:37:46;;;;;;;7.47;2.13;;;6.40;99.90;;;;;;5031805;28;20218;-76
2023/04/25 04:40:15;;;;;;;8.83;2.83;;;6.40;99.90;;;;;;5031678;28;20643;-76
2023/04/25 04:42:42;;;;;;;10.07;2.17;;;6.40;99.90;;;;;;5031395;28;20309;-77
2023/04/25 04:45:10;;;;;;;10.30;2.40;;;6.40;99.90;;;;;;5032130;28;20218;-76
2023/04/25 04:47:39;;;;;;;7.87;2.13;;;6.50;99.90;;;;;;5031983;28;20256;-76
2023/04/25 04:50:08;;;;;;;8.37;2.33;;;6.50;99.90;;;;;;5031506;28;20203;-77
2023/04/25 04:52:35;;;;;;;9.63;1.67;;;6.50;99.90;;;;;;5031713;28;20191;-76
2023/04/25 04:55:03;;;;;;;7.47;1.87;;;6.50;99.90;;;;;;5046928;28;20210;-77
2023/04/25 04:57:30;;;;;;;7.37;2.37;;;6.50;99.90;;;;;;5050871;28;20237;-80
2023/04/25 04:59:57;;;;;;;10.83;2.60;;;6.60;99.90;;;;;;5052060;28;20201;-77
2023/04/25 05:02:24;;;;;;;10.03;2.20;;;6.70;99.90;;;;;;5051892;28;20324;-77
2023/04/25 05:04:51;;;;;;;14.80;2.90;;;6.70;99.90;;;;;;5035003;28;20293;-77
2023/04/25 05:07:19;;;;;;;9.10;1.90;;;6.70;99.90;;;;;;5031862;28;20700;-76
2023/04/25 05:09:46;;;;;;;14.40;2.90;;;6.70;99.90;;;;;;5032159;28;20285;-79
2023/04/25 05:12:13;;;;;;;12.10;2.50;;;6.70;99.90;;;;;;5030896;28;20212;-77
2023/04/25 05:14:40;;;;;;;18.63;3.10;;;6.70;99.90;;;;;;5031896;28;20199;-77
2023/04/25 05:17:08;;;;;;;10.03;2.07;;;6.80;99.90;;;;;;5031061;28;20232;-77
2023/04/25 05:19:35;;;;;;;13.27;2.20;;;6.90;99.90;;;;;;5031527;28;20289;-76
2023/04/25 05:22:02;;;;;;;7.63;1.87;;;6.90;99.90;;;;;;5035674;28;20207;-77
2023/04/25 05:24:31;;;;;;;6.50;2.60;;;6.90;99.90;;;;;;5030616;28;20510;-76
2023/04/25 05:26:58;;;;;;;9.40;2.50;;;7.00;99.90;;;;;;5045370;28;20198;-78
2023/04/25 05:29:25;;;;;;;8.67;2.70;;;7.10;99.90;;;;;;5053885;28;20216;-77
2023/04/25 05:31:52;;;;;;;7.00;2.63;;;7.10;99.90;;;;;;5054231;28;20208;-81
2023/04/25 05:34:19;;;;;;;7.10;1.80;;;7.20;99.90;;;;;;5056207;28;20201;-79
2023/04/25 05:36:48;;;;;;;7.63;2.03;;;7.20;99.90;;;;;;5056007;28;20221;-82
2023/04/25 05:39:15;;;;;;;6.30;2.00;;;7.20;99.90;;;;;;5054475;28;20265;-81
2023/04/25 05:41:43;;;;;;;8.10;1.60;;;7.20;99.90;;;;;;5056412;28;20289;-81
2023/04/25 05:44:10;;;;;;;7.43;1.80;;;7.30;99.90;;;;;;5056228;28;20205;-82
2023/04/25 05:46:37;;;;;;;7.70;2.00;;;7.30;99.90;;;;;;5045958;28;20591;-82
2023/04/25 05:49:04;;;;;;;8.77;1.60;;;7.30;99.90;;;;;;5036242;28;20286;-81
2023/04/25 05:51:31;;;;;;;5.73;1.60;;;7.40;99.90;;;;;;5036056;28;20285;-81
2023/04/25 05:53:58;;;;;;;8.93;1.83;;;7.40;99.90;;;;;;5035362;28;20205;-80
2023/04/25 05:56:25;;;;;;;8.20;2.10;;;7.40;99.90;;;;;;5035704;28;20222;-81
2023/04/25 05:58:53;;;;;;;5.53;1.93;;;7.50;99.90;;;;;;5035545;28;20241;-82
2023/04/25 06:01:20;;;;;;;7.10;2.00;;;7.50;99.90;;;;;;5035472;28;20289;-80
2023/04/25 06:03:47;;;;;;;7.50;2.00;;;7.50;99.90;;;;;;5035570;28;20223;-84
2023/04/25 06:06:14;;;;;;;5.63;1.50;;;7.50;99.90;;;;;;5035139;28;20191;-81
2023/04/25 06:08:41;;;;;;;9.93;1.70;;;7.40;99.90;;;;;;5034943;28;20203;-81
2023/04/25 06:11:08;;;;;;;11.03;2.00;;;7.40;99.90;;;;;;5035413;28;20198;-80
2023/04/25 06:13:35;;;;;;;6.97;1.60;;;7.50;99.90;;;;;;5034395;28;20214;-81
2023/04/25 06:16:03;;;;;;;4.03;1.57;;;7.60;99.90;;;;;;5035439;28;20260;-82
2023/04/25 06:18:31;;;;;;;6.87;1.50;;;7.70;99.90;;;;;;5034996;28;20206;-82
2023/04/25 06:20:58;;;;;;;10.40;1.80;;;7.80;99.90;;;;;;5033967;28;20190;-81
2023/04/25 06:23:24;;;;;;;8.30;1.90;;;8.00;99.90;;;;;;5046890;28;20214;-83
2023/04/25 06:25:52;;;;;;;7.70;2.07;;;8.00;99.90;;;;;;5054977;28;20376;-76
2023/04/25 06:28:19;;;;;;;7.00;1.97;;;8.10;99.90;;;;;;5054150;28;20221;-77
2023/04/25 06:30:45;;;;;;;8.17;1.40;;;8.20;99.90;;;;;;5053910;28;20225;-76
2023/04/25 06:33:14;;;;;;;5.70;2.00;;;8.30;99.90;;;;;;5053918;28;20241;-77
2023/04/25 06:35:41;;;;;;;12.10;2.63;;;8.40;99.90;;;;;;5047170;28;20241;-77
2023/04/25 06:38:08;;;;;;;7.53;2.17;;;8.50;48.70;;;;;;5036531;28;20673;-77
2023/04/25 06:40:35;;;;;;;10.70;2.43;;;8.50;99.90;;;;;;5033554;28;20290;-76
2023/04/25 06:43:02;;;;;;;14.87;3.00;;;8.60;80.70;;;;;;5053142;28;20209;-76
2023/04/25 06:45:29;;;;;;;8.47;2.00;;;8.70;99.90;;;;;;5053824;28;20208;-77
2023/04/25 06:47:56;;;;;;;7.17;1.60;;;8.90;1.00;;;;;;5053714;28;20198;-77
2023/04/25 06:50:24;;;;;;;5.43;1.73;;;9.00;1.00;;;;;;5039001;28;20217;-74
2023/04/25 06:52:51;;;;;;;7.20;1.63;;;9.10;1.00;;;;;;5053926;28;20201;-76
2023/04/25 06:55:18;;;;;;;6.07;1.87;;;9.30;1.00;;;;;;5015585;28;20202;-75
2023/04/25 06:57:45;;;;;;;9.40;1.60;;;9.60;1.00;;;;;;5052893;28;20237;-78
2023/04/25 07:00:13;;;;;;;8.53;1.77;;;9.90;1.00;;;;;;5053553;28;20247;-80
2023/04/25 07:02:42;;;;;;;9.33;1.60;;;10.10;1.00;;;;;;5046027;28;20321;-81
2023/04/25 07:05:09;;;;;;;4.90;2.07;;;10.20;1.00;;;;;;5054237;28;20205;-81
2023/04/25 07:07:38;;;;;;;5.37;2.17;;;10.40;1.00;;;;;;5048868;28;20205;-81
2023/04/25 07:10:05;;;;;;;5.80;1.60;;;10.40;1.00;;;;;;5045976;28;20209;-78
2023/04/25 07:12:32;;;;;;;5.00;1.60;;;10.20;1.00;;;;;;5052096;28;20209;-77
2023/04/25 07:14:59;;;;;;;3.63;1.40;;;10.00;1.00;;;;;;5054754;28;20838;-79
2023/04/25 07:17:26;;;;;;;5.87;1.50;;;9.70;1.00;;;;;;5041866;28;20223;-80
2023/04/25 07:19:53;;;;;;;8.50;2.43;;;9.50;45.00;;;;;;5059845;28;20209;-78
2023/04/25 07:22:20;;;;;;;4.63;1.80;;;9.40;99.70;;;;;;5050914;28;20206;-78
2023/04/25 07:24:48;;;;;;;7.40;1.40;;;9.30;99.90;;;;;;5061798;28;20291;-79
2023/04/25 07:27:15;;;;;;;8.70;1.90;;;9.30;94.50;;;;;;5051092;28;20301;-80
2023/04/25 07:29:42;;;;;;;5.20;1.70;;;9.40;92.20;;;;;;5049834;28;20210;-79
2023/04/25 07:32:13;;;;;;;5.10;1.60;;;9.40;21.80;;;;;;5042343;28;20275;-80
2023/04/25 07:34:41;;;;;;;9.17;2.00;;;9.60;93.20;;;;;;5049340;28;20217;-80
2023/04/25 07:37:08;;;;;;;8.53;1.60;;;9.80;23.10;;;;;;5056019;28;20221;-78
2023/04/25 07:39:35;;;;;;;6.37;1.40;;;10.30;1.00;;;;;;5042713;28;20244;-79
2023/04/25 07:42:07;;;;;;;3.10;1.30;;;10.60;1.00;;;;;;5053486;28;20284;-78
2023/04/25 07:44:38;;;;;;;2.93;1.10;;;10.90;99.90;;;;;;5049774;28;20228;-78
2023/04/25 07:47:06;;;;;;;4.10;1.00;;;11.10;99.90;;;;;;5036740;28;20242;-78
2023/04/25 07:49:33;;;;;;;7.40;1.20;;;11.10;1.00;;;;;;5044808;28;20276;-78
2023/04/25 07:52:00;;;;;;;4.90;1.50;;;11.40;20.70;;;;;;5056835;28;20625;-80
2023/04/25 07:54:27;;;;;;;6.60;1.50;;;11.50;1.00;;;;;;5053426;28;20207;-77
2023/04/25 07:56:54;;;;;;;6.23;1.30;;;11.60;1.00;;;;;;5063479;28;20312;-79
2023/04/25 07:59:22;;;;;;;6.33;1.67;;;11.70;1.00;;;;;;5053240;28;20206;-76
2023/04/25 08:01:49;;;;;;;6.50;1.60;;;11.80;1.00;;;;;;5058263;28;20205;-77
2023/04/25 08:04:16;;;;;;;10.10;2.00;;;11.60;1.00;;;;;;5046258;28;20206;-79
2023/04/25 08:06:43;;;;;;;5.33;1.77;;;11.20;1.00;;;;;;5049345;28;20738;-79
2023/04/25 08:09:10;;;;;;;4.60;1.20;;;11.00;1.00;;;;;;5052302;28;20202;-80
2023/04/25 08:11:38;;;;;;;4.70;1.10;;;10.70;1.00;;;;;;5058192;28;20223;-80
2023/04/25 08:14:05;;;;;;;5.43;1.73;;;10.50;1.00;;;;;;5059746;28;20566;-79
2023/04/25 08:16:33;;;;;;;6.80;1.57;;;10.30;1.00;;;;;;5052629;28;20208;-79
2023/04/25 08:19:00;;;;;;;6.50;1.50;;;10.30;1.00;;;;;;5047499;28;20291;-80
2023/04/25 08:21:27;;;;;;;3.03;1.20;;;10.20;1.00;;;;;;5053560;28;20189;-78
2023/04/25 08:23:54;;;;;;;5.77;1.17;;;10.10;1.00;;;;;;5053277;28;20197;-79
2023/04/25 08:26:21;;;;;;;3.87;1.10;;;10.00;1.00;;;;;;5055609;28;20203;-75
2023/04/25 08:28:48;;;;;;;4.67;1.13;;;10.00;1.00;;;;;;5037641;28;20359;-79
2023/04/25 08:31:15;;;;;;;4.53;1.87;;;10.00;1.00;;;;;;5063255;28;20651;-79
2023/04/25 08:33:43;;;;;;;8.10;1.97;;;10.10;1.00;;;;;;5053684;28;20197;-78
2023/04/25 08:36:10;;;;;;;7.00;1.53;;;10.10;1.00;;;;;;5040411;28;20622;-78
2023/04/25 08:38:37;;;;;;;6.63;1.17;;;10.00;1.00;;;;;;5044679;28;20236;-78
2023/04/25 08:41:06;;;;;;;6.10;1.33;;;10.10;1.00;;;;;;5060113;28;20655;-78
2023/04/25 08:43:34;;;;;;;5.20;1.70;;;10.20;1.00;;;;;;5058459;28;20206;-78
2023/04/25 08:46:03;;;;;;;6.60;1.40;;;10.30;1.00;;;;;;5050474;28;20208;-77
2023/04/25 08:48:33;;;;;;;6.10;1.87;;;10.30;1.00;;;;;;5047391;28;20239;-80
2023/04/25 08:51:03;;;;;;;3.90;1.67;;;10.30;1.00;;;;;;5062500;28;20202;-78
2023/04/25 08:53:32;;;;;;;4.03;1.13;;;10.30;1.00;;;;;;5049430;28;20654;-78
2023/04/25 08:56:02;;;;;;;4.40;1.50;;;10.50;1.00;;;;;;5045369;28;20201;-79
2023/04/25 08:58:29;;;;;;;4.10;0.83;;;10.90;1.00;;;;;;5037199;28;20244;-78
2023/04/25 09:00:56;;;;;;;7.90;1.57;;;11.10;99.90;;;;;;5059242;28;20539;-77
2023/04/25 09:03:23;;;;;;;6.30;1.67;;;11.20;99.90;;;;;;5044738;28;20206;-79
2023/04/25 09:05:51;;;;;;;4.87;1.20;;;11.40;99.90;;;;;;5059116;28;20209;-78
2023/04/25 09:08:19;;;;;;;6.27;1.53;;;11.50;1.00;;;;;;5063138;28;20283;-77
2023/04/25 09:10:46;;;;;;;3.13;1.10;;;11.80;1.00;;;;;;5046296;28;20290;-76
2023/04/25 09:13:14;;;;;;;6.40;1.87;;;12.10;1.00;;;;;;5046771;28;20212;-77
2023/04/25 09:15:49;;;;;;;4.53;1.40;;;12.20;1.00;;;;;;5046857;28;20759;-77
2023/04/25 09:18:25;;;;;;;9.57;1.50;;;12.10;1.00;;;;;;5049550;28;20515;-76
2023/04/25 09:20:53;;;;;;;3.67;1.17;;;12.10;1.00;;;;;;5049801;28;20209;-76
2023/04/25 09:23:22;;;;;;;5.97;1.73;;;12.30;1.00;;;;;;5047236;28;20248;-76
2023/04/25 09:25:50;;;;;;;6.47;1.33;;;12.30;1.00;;;;;;5045061;28;20613;-75
2023/04/25 09:28:17;;;;;;;4.23;1.33;;;12.30;99.90;;;;;;5058727;28;20225;-76
2023/04/25 09:30:46;;;;;;;6.40;2.17;;;12.20;1.00;;;;;;5048360;28;20547;-77
2023/04/25 09:33:13;;;;;;;5.77;1.10;;;12.10;1.00;;;;;;5045371;28;20875;-75
2023/04/25 09:35:43;;;;;;;2.73;1.17;;;11.90;99.90;;;;;;5052970;28;20210;-74
2023/04/25 09:38:14;;;;;;;2.13;0.80;;;11.60;1.00;;;;;;5055231;28;20627;-77
2023/04/25 09:40:44;;;;;;;2.90;1.30;;;11.20;1.00;;;;;;5043481;28;20211;-78
2023/04/25 09:43:12;;;;;;;5.47;1.30;;;11.00;1.00;;;;;;5067207;28;20501;-77
2023/04/25 09:45:45;;;;;;;3.57;1.30;;;11.10;1.00;;;;;;5051132;28;20221;-77
2023/04/25 09:48:12;;;;;;;5.07;1.27;;;11.30;99.90;;;;;;5057394;28;20205;-78
2023/04/25 09:50:40;;;;;;;7.77;1.43;;;11.40;1.00;;;;;;5051968;28;20206;-76
2023/04/25 09:53:07;;;;;;;5.90;1.40;;;11.70;99.90;;;;;;5049568;28;20297;-78
2023/04/25 09:55:35;;;;;;;6.77;1.63;;;12.00;1.00;;;;;;5040106;28;20197;-76
2023/04/25 09:58:06;;;;;;;6.17;1.30;;;12.00;99.90;;;;;;5049280;28;20240;-77
2023/04/25 10:00:34;;;;;;;6.67;1.60;;;11.90;99.90;;;;;;5061808;28;20214;-76
2023/04/25 10:03:04;;;;;;;5.60;1.50;;;12.10;1.00;;;;;;5055274;28;20209;-76
2023/04/25 10:05:35;;;;;;;3.93;1.63;;;12.30;99.90;;;;;;5055534;28;20206;-77
2023/04/25 10:08:04;;;;;;;6.70;1.97;;;12.50;1.00;;;;;;5053195;28;20206;-76
2023/04/25 10:10:35;;;;;;;6.83;1.70;;;12.60;1.00;;;;;;5052044;28;20233;-76
2023/04/25 10:13:06;;;;;;;9.77;1.80;;;12.80;1.00;;;;;;5052926;28;20214;-76
2023/04/25 10:15:36;;;;;;;9.73;2.10;;;12.90;1.00;;;;;;5052682;28;20218;-77
2023/04/25 10:18:03;;;;;;;6.50;1.87;;;12.20;1.00;;;;;;5053956;28;20536;-77
2023/04/25 10:20:31;;;;;;;7.13;1.73;;;11.80;99.90;;;;;;5051055;28;20225;-78
2023/04/25 10:23:04;;;;;;;9.97;1.67;;;11.50;99.90;;;;;;5053325;28;20206;-77
2023/04/25 10:25:32;;;;;;;4.03;1.20;;;11.30;99.90;;;;;;5053217;28;20661;-77
2023/04/25 10:28:02;;;;;;;6.43;1.27;;;11.30;1.00;;;;;;5052947;28;20217;-76
2023/04/25 10:30:30;;;;;;;6.17;0.87;;;11.30;1.00;;;;;;5045174;28;20229;-77
2023/04/25 10:32:57;;;;;;;5.70;1.50;;;11.60;1.00;;;;;;5032899;28;20222;-75
2023/04/25 10:35:26;;;;;;;9.47;1.53;;;11.90;1.00;;;;;;5032653;28;20210;-76
2023/04/25 10:38:05;;;;;;;3.53;1.33;;;12.00;1.00;;;;;;5033327;28;20226;-75
2023/04/25 10:40:32;;;;;;;4.80;1.20;;;11.90;1.00;;;;;;5032368;28;20779;-76
2023/04/25 10:43:36;;;;;;;5.83;1.10;;;11.60;99.90;;;;;;5033540;28;20618;-76
2023/04/25 10:46:14;;;;;;;2.20;1.00;;;11.60;99.90;;;;;;5033242;28;20268;-77
2023/04/25 10:48:47;;;;;;;3.90;1.10;;;11.60;99.90;;;;;;5033062;28;20197;-77
2023/04/25 10:51:18;;;;;;;2.60;1.00;;;11.90;99.90;;;;;;5033655;28;20199;-77
2023/04/25 10:53:45;;;;;;;5.10;1.30;;;12.10;99.90;;;;;;5033449;28;20286;-78
2023/04/25 10:56:13;;;;;;;6.67;1.40;;;12.40;1.00;;;;;;5032446;28;20198;-76
2023/04/25 10:58:44;;;;;;;5.17;1.40;;;12.70;19.70;;;;;;5033305;28;20820;-78
2023/04/25 11:01:14;;;;;;;5.60;1.40;;;12.90;7.90;;;;;;5033349;28;20213;-78
2023/04/25 11:03:43;;;;;;;4.90;1.43;;;12.90;1.00;;;;;;5033070;28;20459;-78
2023/04/25 11:06:21;;;;;;;6.73;1.97;;;12.90;1.00;;;;;;5032792;28;20237;-77
2023/04/25 11:08:50;;;;;;;8.10;1.50;;;12.90;2.50;;;;;;5032989;28;20195;-76
2023/04/25 11:11:18;;;;;;;3.17;1.23;;;13.10;1.00;;;;;;5032282;28;20611;-77
2023/04/25 11:13:48;;;;;;;4.70;1.47;;;13.00;1.00;;;;;;5032727;28;20198;-76
2023/04/25 11:16:16;;;;;;;6.07;1.40;;;12.80;1.00;;;;;;5030922;28;20252;-77
2023/04/25 11:18:44;;;;;;;4.40;1.47;;;12.50;99.90;;;;;;5032161;28;20638;-77
2023/04/25 11:21:11;;;;;;;5.70;1.30;;;12.70;1.00;;;;;;5031634;28;20213;-77
2023/04/25 11:23:38;;;;;;;4.50;1.50;;;12.90;99.90;;;;;;5030876;28;20613;-76
2023/04/25 11:26:05;;;;;;;7.07;1.20;;;12.90;1.00;;;;;;5031266;28;20211;-78
2023/04/25 11:28:32;;;;;;;8.07;1.27;;;12.80;1.00;;;;;;5031663;28;20221;-76
2023/04/25 11:30:59;;;;;;;3.40;1.20;;;12.80;1.00;;;;;;5032102;28;20198;-78
2023/04/25 11:33:28;;;;;;;5.37;1.20;;;13.00;1.00;;;;;;5033101;28;20199;-77
2023/04/25 11:35:56;;;;;;;3.67;1.60;;;13.10;1.00;;;;;;5032272;28;20194;-76
2023/04/25 11:38:23;;;;;;;5.30;1.60;;;13.10;1.00;;;;;;5030781;28;20226;-78
2023/04/25 11:40:53;;;;;;;3.63;1.20;;;12.90;1.00;;;;;;5032344;28;20555;-78
2023/04/25 11:43:22;;;;;;;5.40;1.33;;;13.10;1.00;;;;;;5032908;28;20190;-78
2023/04/25 11:45:50;;;;;;;5.93;1.43;;;13.00;1.00;;;;;;5031758;28;20729;-78
2023/04/25 11:48:17;;;;;;;5.30;1.20;;;13.10;99.90;;;;;;5032857;28;20245;-75
2023/04/25 11:50:46;;;;;;;6.03;1.30;;;13.30;99.90;;;;;;5044903;28;20292;-77
2023/04/25 11:53:12;;;;;;;4.13;1.33;;;13.30;1.00;;;;;;5052785;28;20198;-76
2023/04/25 11:55:39;;;;;;;5.03;1.20;;;13.10;1.00;;;;;;5050847;28;20206;-77
2023/04/25 11:58:08;;;;;;;8.20;1.63;;;13.10;1.00;;;;;;5051748;28;20279;-76
2023/04/25 12:00:35;;;;;;;6.40;1.97;;;13.10;1.00;;;;;;5033794;28;20206;-76
2023/04/25 12:03:02;;;;;;;4.93;1.33;;;13.20;1.00;;;;;;5035119;28;20236;-76
2023/04/25 12:05:33;;;;;;;6.83;1.43;;;13.40;1.00;;;;;;5051785;28;20204;-77
2023/04/25 12:08:11;;;;;;;6.97;1.30;;;13.50;1.00;;;;;;5051826;28;20186;-79
2023/04/25 12:10:39;;;;;;;4.17;1.40;;;13.50;1.00;;;;;;5040884;28;20198;-76
2023/04/25 12:13:20;;;;;;;10.33;1.70;;;13.50;1.00;;;;;;5031593;28;20214;-75
2023/04/25 12:15:47;;;;;;;4.30;1.37;;;13.30;1.00;;;;;;5032448;28;20277;-77
2023/04/25 12:18:13;;;;;;;3.23;1.13;;;13.30;1.00;;;;;;5041956;28;20225;-77
2023/04/25 12:20:40;;;;;;;6.13;1.30;;;13.30;99.90;;;;;;5051395;28;20208;-77
2023/04/25 12:23:08;;;;;;;6.50;1.67;;;13.20;99.90;;;;;;5051909;28;20648;-76
2023/04/25 12:25:37;;;;;;;9.07;1.70;;;13.50;1.00;;;;;;5049154;28;20216;-77
2023/04/25 12:28:15;;;;;;;6.00;1.50;;;13.60;1.00;;;;;;5031125;28;20268;-77
2023/04/25 12:30:58;;;;;;;8.23;2.13;;;13.60;99.90;;;;;;5031864;28;20197;-78
2023/04/25 12:33:26;;;;;;;6.87;1.73;;;13.50;1.00;;;;;;5031373;28;20281;-77
2023/04/25 12:35:54;;;;;;;8.40;1.83;;;13.20;1.00;;;;;;5031100;28;20293;-77
2023/04/25 12:38:27;;;;;;;10.27;2.00;;;13.10;1.00;;;;;;5039512;28;20220;-77
2023/04/25 12:40:54;;;;;;;6.43;1.50;;;12.90;99.90;;;;;;5039926;28;20586;-77
2023/04/25 12:43:21;;;;;;;5.47;1.33;;;13.00;1.00;;;;;;5038964;28;20453;-77
2023/04/25 12:45:49;;;;;;;3.87;1.60;;;13.00;1.00;;;;;;5040926;28;20206;-78
2023/04/25 12:48:16;;;;;;;7.83;1.57;;;12.80;1.00;;;;;;5047668;28;20193;-77
2023/04/25 12:50:43;;;;;;;6.43;1.77;;;12.40;1.00;;;;;;5045146;28;20269;-77
2023/04/25 12:53:11;;;;;;;10.27;1.50;;;12.10;1.00;;;;;;5047491;28;20198;-77
2023/04/25 12:55:40;;;;;;;7.33;1.60;;;12.00;99.90;;;;;;5043086;28;20298;-77
2023/04/25 12:58:07;;;;;;;7.13;1.27;;;11.80;1.00;;;;;;5036518;28;20206;-76
2023/04/25 13:00:34;;;;;;;3.63;1.27;;;11.90;1.00;;;;;;5045967;28;20211;-75